createdAt,value
2023-01-10T00:00:43.133Z,21.08
2023-01-10T00:03:12.038Z,27.73
2023-01-10T00:05:40.659Z,23.27
2023-01-10T00:08:08.894Z,17.25
2023-01-10T00:10:36.213Z,27.63
2023-01-10T00:13:21.749Z,22.83
2023-01-10T00:15:49.165Z,20.75
2023-01-10T00:18:16.142Z,22.92
2023-01-10T00:20:44.820Z,22.08
2023-01-10T00:23:12.924Z,24.48
2023-01-10T00:25:40.941Z,23.60
2023-01-10T00:28:20.267Z,23.35
2023-01-10T00:31:01.242Z,24.05
2023-01-10T00:33:32.143Z,28.75
2023-01-10T00:36:03.627Z,26.75
2023-01-10T00:38:31.582Z,30.27
2023-01-10T00:40:58.640Z,30.88
2023-01-10T00:43:44.576Z,24.75
2023-01-10T00:46:11.972Z,34.83
2023-01-10T00:48:38.992Z,21.25
2023-01-10T00:51:06.178Z,28.85
2023-01-10T00:53:33.237Z,24.13
2023-01-10T00:56:00.216Z,21.05
2023-01-10T00:58:27.139Z,31.15
2023-01-10T01:00:54.081Z,33.70
2023-01-10T01:03:23.287Z,29.65
2023-01-10T01:05:50.597Z,27.95
2023-01-10T01:08:18.968Z,28.25
2023-01-10T01:10:46.803Z,34.20
2023-01-10T01:13:18.652Z,27.60
2023-01-10T01:15:45.918Z,29.35
2023-01-10T01:18:14.990Z,29.30
2023-01-10T01:20:42.316Z,28.67
2023-01-10T01:23:09.593Z,41.80
2023-01-10T01:25:36.518Z,31.98
2023-01-10T01:28:04.119Z,24.92
2023-01-10T01:30:31.015Z,25.23
2023-01-10T01:32:58.129Z,36.78
2023-01-10T01:35:25.525Z,32.92
2023-01-10T01:37:52.826Z,30.45
2023-01-10T01:40:21.720Z,28.92
2023-01-10T01:42:49.754Z,36.03
2023-01-10T01:45:34.548Z,26.00
2023-01-10T01:48:26.403Z,29.88
2023-01-10T01:51:05.747Z,29.75
2023-01-10T01:53:45.104Z,28.70
2023-01-10T01:56:15.350Z,31.65
2023-01-10T01:59:07.771Z,35.78
2023-01-10T02:01:37.722Z,27.80
2023-01-10T02:04:17.076Z,28.38
2023-01-10T02:06:46.520Z,34.08
2023-01-10T02:09:19.070Z,28.75
2023-01-10T02:11:46.325Z,27.48
2023-01-10T02:14:14.855Z,19.83
2023-01-10T02:16:42.488Z,24.98
2023-01-10T02:19:24.799Z,21.33
2023-01-10T02:22:00.283Z,30.45
2023-01-10T02:24:39.228Z,28.52
2023-01-10T02:27:41.510Z,28.33
2023-01-10T02:30:29.788Z,28.25
2023-01-10T02:33:05.793Z,26.55
2023-01-10T02:35:38.375Z,27.85
2023-01-10T02:38:31.502Z,31.33
2023-01-10T02:41:38.562Z,23.35
2023-01-10T02:44:31.859Z,32.17
2023-01-10T02:46:58.711Z,30.05
2023-01-10T02:49:25.571Z,26.65
2023-01-10T02:51:52.763Z,35.90
2023-01-10T02:54:24.824Z,26.15
2023-01-10T02:56:54.404Z,30.08
2023-01-10T02:59:38.913Z,30.25
2023-01-10T03:02:17.871Z,26.70
2023-01-10T03:05:06.203Z,22.83
2023-01-10T03:07:39.468Z,32.83
2023-01-10T03:10:25.845Z,23.85
2023-01-10T03:13:10.277Z,26.47
2023-01-10T03:15:40.240Z,33.92
2023-01-10T03:18:14.468Z,25.85
2023-01-10T03:20:45.595Z,20.92
2023-01-10T03:23:14.994Z,30.48
2023-01-10T03:25:43.999Z,34.28
2023-01-10T03:28:16.191Z,27.60
2023-01-10T03:30:55.170Z,30.60
2023-01-10T03:33:27.847Z,29.38
2023-01-10T03:36:27.476Z,32.28
2023-01-10T03:38:56.962Z,22.98
2023-01-10T03:41:29.717Z,30.17
2023-01-10T03:44:42.477Z,35.55
2023-01-10T03:47:35.613Z,33.28
2023-01-10T03:50:13.635Z,29.13
2023-01-10T03:52:42.587Z,30.85
2023-01-10T03:55:18.256Z,26.02
2023-01-10T03:57:50.131Z,29.17
2023-01-10T04:00:18.061Z,28.40
2023-01-10T04:02:45.344Z,28.75
2023-01-10T04:05:12.450Z,32.10
2023-01-10T04:07:39.753Z,28.30
2023-01-10T04:10:07.746Z,33.30
2023-01-10T04:12:34.741Z,41.33
2023-01-10T04:15:03.231Z,36.67
2023-01-10T04:17:30.188Z,36.58
2023-01-10T04:19:57.273Z,35.58
2023-01-10T04:22:24.200Z,38.20
2023-01-10T04:24:54.609Z,35.25
2023-01-10T04:27:21.626Z,40.33
2023-01-10T04:29:48.610Z,30.35
2023-01-10T04:32:16.011Z,33.47
2023-01-10T04:34:42.926Z,36.08
2023-01-10T04:37:09.920Z,34.05
2023-01-10T04:39:36.813Z,40.70
2023-01-10T04:42:03.800Z,31.85
2023-01-10T04:44:30.818Z,41.95
2023-01-10T04:46:57.819Z,25.48
2023-01-10T04:49:24.777Z,32.33
2023-01-10T04:51:51.862Z,38.95
2023-01-10T04:54:23.069Z,36.45
2023-01-10T04:56:50.221Z,36.55
2023-01-10T04:59:17.229Z,39.30
2023-01-10T05:01:44.202Z,32.03
2023-01-10T05:04:11.144Z,39.95
2023-01-10T05:06:40.355Z,35.83
2023-01-10T05:09:08.379Z,42.35
2023-01-10T05:11:35.403Z,35.95
2023-01-10T05:14:02.404Z,36.10
2023-01-10T05:16:29.769Z,38.05
2023-01-10T05:18:56.850Z,36.95
2023-01-10T05:21:24.330Z,33.63
2023-01-10T05:23:51.227Z,34.90
2023-01-10T05:26:21.884Z,40.50
2023-01-10T05:28:49.337Z,31.08
2023-01-10T05:31:19.948Z,36.00
2023-01-10T05:33:48.751Z,33.97
2023-01-10T05:36:17.761Z,31.80
2023-01-10T05:38:44.950Z,35.35
2023-01-10T05:41:12.203Z,35.03
2023-01-10T05:43:39.162Z,31.23
2023-01-10T05:46:06.164Z,33.38
2023-01-10T05:48:33.285Z,39.00
2023-01-10T05:51:00.597Z,40.90
2023-01-10T05:53:27.786Z,36.35
2023-01-10T05:56:02.335Z,37.33
2023-01-10T05:58:30.115Z,41.25
2023-01-10T06:00:58.169Z,39.85
2023-01-10T06:03:26.774Z,30.98
2023-01-10T06:05:57.390Z,38.40
2023-01-10T06:08:24.833Z,36.22
2023-01-10T06:10:52.323Z,30.23
2023-01-10T06:13:19.221Z,32.58
2023-01-10T06:15:46.169Z,32.33
2023-01-10T06:18:13.322Z,29.95
2023-01-10T06:20:41.249Z,40.63
2023-01-10T06:23:08.176Z,32.03
2023-01-10T06:25:37.771Z,32.22
2023-01-10T06:28:04.755Z,28.88
2023-01-10T06:30:31.644Z,26.30
2023-01-10T06:33:02.796Z,33.08
2023-01-10T06:35:30.597Z,32.33
2023-01-10T06:37:58.026Z,27.33
2023-01-10T06:40:26.273Z,34.35
2023-01-10T06:42:53.472Z,29.77
2023-01-10T06:45:20.361Z,21.52
2023-01-10T06:47:47.291Z,19.10
2023-01-10T06:50:14.790Z,25.90
2023-01-10T06:52:42.143Z,32.92
2023-01-10T06:55:09.282Z,38.83
2023-01-10T06:57:38.309Z,31.98
2023-01-10T07:00:07.952Z,30.38
2023-01-10T07:02:34.923Z,21.58
2023-01-10T07:05:01.841Z,22.63
2023-01-10T07:07:28.924Z,24.30
2023-01-10T07:09:55.973Z,31.13
2023-01-10T07:12:22.898Z,27.08
2023-01-10T07:14:49.833Z,23.42
2023-01-10T07:17:16.756Z,32.72
2023-01-10T07:19:43.734Z,28.45
2023-01-10T07:22:12.177Z,28.13
2023-01-10T07:24:39.156Z,26.58
2023-01-10T07:27:06.130Z,29.80
2023-01-10T07:29:33.002Z,24.92
2023-01-10T07:32:00.233Z,26.80
2023-01-10T07:34:27.238Z,31.50
2023-01-10T07:36:54.166Z,32.75
2023-01-10T07:39:21.032Z,32.22
2023-01-10T07:41:48.966Z,35.33
2023-01-10T07:44:16.431Z,29.85
2023-01-10T07:46:43.427Z,32.08
2023-01-10T07:49:10.521Z,30.95
2023-01-10T07:51:37.429Z,27.52
2023-01-10T07:54:04.456Z,36.35
2023-01-10T07:56:31.439Z,34.72
2023-01-10T07:58:58.801Z,37.22
2023-01-10T08:01:26.280Z,26.17
2023-01-10T08:03:54.464Z,29.75
2023-01-10T08:06:21.360Z,31.42
2023-01-10T08:08:48.233Z,36.20
2023-01-10T08:11:15.350Z,32.25
2023-01-10T08:13:42.388Z,39.17
2023-01-10T08:16:09.475Z,27.67
2023-01-10T08:18:36.685Z,33.08
2023-01-10T08:21:03.671Z,26.85
2023-01-10T08:23:32.446Z,28.70
2023-01-10T08:25:59.902Z,34.05
2023-01-10T08:28:26.829Z,30.33
2023-01-10T08:30:55.856Z,27.92
2023-01-10T08:33:24.085Z,27.33
2023-01-10T08:35:52.106Z,25.67
2023-01-10T08:38:19.053Z,28.38
2023-01-10T08:40:46.084Z,23.98
2023-01-10T08:43:13.613Z,30.00
2023-01-10T08:45:40.943Z,32.00
2023-01-10T08:48:09.587Z,24.42
2023-01-10T08:50:36.520Z,27.05
2023-01-10T08:53:03.766Z,31.88
2023-01-10T08:55:31.437Z,23.13
2023-01-10T08:58:02.482Z,26.60
2023-01-10T09:00:30.432Z,24.33
2023-01-10T09:02:58.071Z,29.23
2023-01-10T09:05:27.692Z,33.03
2023-01-10T09:08:00.336Z,28.08
2023-01-10T09:10:28.821Z,26.45
2023-01-10T09:12:57.417Z,35.17
2023-01-10T09:15:26.945Z,30.90
2023-01-10T09:17:58.992Z,23.42
2023-01-10T09:20:26.796Z,26.13
2023-01-10T09:22:54.210Z,26.45
2023-01-10T09:25:21.448Z,23.70
2023-01-10T09:27:55.676Z,30.42
2023-01-10T09:30:22.603Z,22.45
2023-01-10T09:32:54.325Z,22.35
2023-01-10T09:35:21.937Z,24.67
2023-01-10T09:37:49.280Z,24.50
2023-01-10T09:40:38.092Z,20.75
2023-01-10T09:43:36.000Z,28.60
2023-01-10T10:17:53.185Z,21.13
2023-01-10T10:20:28.420Z,25.13
2023-01-10T10:23:13.453Z,24.60
2023-01-10T10:25:55.630Z,20.92
2023-01-10T10:28:54.003Z,24.20
2023-01-10T10:31:42.536Z,24.17
2023-01-10T10:34:27.638Z,20.17
2023-01-10T10:37:04.332Z,27.08
2023-01-10T10:39:44.760Z,29.13
2023-01-10T10:42:15.816Z,31.65
2023-01-10T10:44:50.117Z,24.55
2023-01-10T10:47:20.435Z,24.38
2023-01-10T10:49:54.805Z,26.52
2023-01-10T10:52:27.350Z,28.15
2023-01-10T10:54:55.331Z,27.58
2023-01-10T10:57:27.764Z,26.67
2023-01-10T10:59:56.495Z,25.73
2023-01-10T11:02:27.579Z,28.85
2023-01-10T11:05:00.138Z,22.10
2023-01-10T11:07:32.870Z,25.40
2023-01-10T11:10:02.806Z,23.67
2023-01-10T11:12:36.044Z,23.60
2023-01-10T11:15:03.866Z,23.58
2023-01-10T11:17:34.032Z,24.45
2023-01-10T11:20:21.251Z,32.67
2023-01-10T11:22:54.276Z,20.02
2023-01-10T11:25:23.075Z,24.25
2023-01-10T11:27:55.750Z,23.27
2023-01-10T11:30:32.472Z,25.92
2023-01-10T11:33:05.965Z,29.40
2023-01-10T11:35:37.169Z,29.88
2023-01-10T11:38:17.539Z,33.88
2023-01-10T11:41:01.391Z,26.45
2023-01-10T11:43:34.800Z,28.83
2023-01-10T11:46:15.648Z,36.33
2023-01-10T11:49:04.293Z,22.52
2023-01-10T11:51:47.517Z,31.63
2023-01-10T11:54:26.666Z,28.10
2023-01-10T11:57:04.180Z,28.17
2023-01-10T11:59:32.942Z,24.27
2023-01-10T12:02:05.227Z,24.25
2023-01-10T12:04:39.870Z,26.10
2023-01-10T12:07:11.067Z,28.50
2023-01-10T12:09:42.849Z,25.45
2023-01-10T12:12:21.844Z,25.63
2023-01-10T12:14:50.252Z,22.25
2023-01-10T12:17:23.863Z,25.85
2023-01-10T12:19:56.495Z,21.73
2023-01-10T12:22:47.537Z,29.17
2023-01-10T12:25:21.336Z,24.85
2023-01-10T12:27:50.579Z,17.15
2023-01-10T12:30:36.608Z,27.40
2023-01-10T12:33:07.179Z,26.52
2023-01-10T12:35:41.306Z,24.92
2023-01-10T12:38:43.438Z,25.25
2023-01-10T12:41:35.026Z,26.80
2023-01-10T12:44:15.097Z,27.33
2023-01-10T12:47:05.917Z,21.13
2023-01-10T12:49:51.241Z,21.42
2023-01-10T12:52:31.258Z,21.13
2023-01-10T12:54:58.908Z,23.77
2023-01-10T12:57:38.025Z,24.00
2023-01-10T13:00:15.901Z,24.02
2023-01-10T13:02:46.415Z,19.13
2023-01-10T13:05:22.317Z,28.17
2023-01-10T13:07:52.508Z,21.30
2023-01-10T13:10:23.309Z,29.35
2023-01-10T13:13:16.916Z,19.27
2023-01-10T13:16:12.138Z,24.67
2023-01-10T13:19:02.036Z,29.15
2023-01-10T13:21:31.291Z,17.00
2023-01-10T13:24:05.092Z,20.27
2023-01-10T13:26:52.816Z,17.38
2023-01-10T13:29:29.324Z,20.95
2023-01-10T13:34:35.852Z,17.65
2023-01-10T13:37:04.813Z,13.55
2023-01-10T13:39:31.667Z,20.02
2023-01-10T13:42:17.056Z,21.40
2023-01-10T13:45:02.237Z,22.40
2023-01-10T13:47:41.183Z,19.23
2023-01-10T13:50:22.813Z,19.25
2023-01-10T13:52:54.307Z,21.83
2023-01-10T13:55:28.891Z,23.52
2023-01-10T13:58:01.732Z,20.42
2023-01-10T14:00:53.185Z,30.27
2023-01-10T14:03:42.656Z,21.38
2023-01-10T14:06:27.736Z,20.98
2023-01-10T14:09:06.839Z,25.80
2023-01-10T14:11:59.482Z,21.10
2023-01-10T14:14:31.467Z,21.10
2023-01-10T14:17:12.928Z,19.20
2023-01-10T14:19:42.030Z,23.80
2023-01-10T14:22:27.564Z,18.67
2023-01-10T14:24:54.862Z,31.63
2023-01-10T14:27:22.982Z,25.20
2023-01-10T14:29:52.897Z,27.33
2023-01-10T14:32:41.408Z,26.35
2023-01-10T14:35:16.846Z,22.85
2023-01-10T14:37:54.552Z,22.92
2023-01-10T14:40:33.273Z,23.38
2023-01-10T14:43:04.407Z,21.15
2023-01-10T14:45:39.929Z,22.42
2023-01-10T14:48:36.088Z,24.58
2023-01-10T14:51:22.904Z,20.15
2023-01-10T14:54:01.654Z,15.68
2023-01-10T14:56:30.371Z,22.08
2023-01-10T14:58:57.369Z,16.80
2023-01-10T15:01:30.198Z,20.00
2023-01-10T15:03:57.631Z,24.58
2023-01-10T15:06:26.009Z,20.40
2023-01-10T15:09:00.840Z,16.50
2023-01-10T15:11:32.835Z,28.30
2023-01-10T15:14:05.264Z,28.63
2023-01-10T15:16:33.022Z,22.70
2023-01-10T15:19:00.428Z,48.58
2023-01-10T15:21:27.593Z,32.10
2023-01-10T15:23:55.337Z,25.10
2023-01-10T15:26:33.603Z,22.73
2023-01-10T15:29:12.902Z,26.67
2023-01-10T15:31:41.579Z,19.85
2023-01-10T15:34:18.859Z,19.33
2023-01-10T15:36:50.169Z,16.48
2023-01-10T15:39:27.283Z,14.50
2023-01-10T15:42:01.334Z,10.18
2023-01-10T15:44:40.979Z,18.77
2023-01-10T15:47:33.751Z,20.80
2023-01-10T15:50:00.847Z,17.80
2023-01-10T15:52:28.309Z,21.17
2023-01-10T15:54:57.114Z,21.38
2023-01-10T15:57:32.817Z,18.02
2023-01-10T16:00:00.360Z,14.67
2023-01-10T16:02:32.877Z,13.35
2023-01-10T16:05:09.516Z,17.15
2023-01-10T16:10:35.797Z,18.40
2023-01-10T16:13:31.776Z,14.10
2023-01-10T16:16:01.212Z,14.65
2023-01-10T16:18:28.254Z,15.07
2023-01-10T16:20:57.755Z,13.93
2023-01-10T16:23:34.580Z,16.08
2023-01-10T16:26:05.221Z,10.73
2023-01-10T16:28:36.378Z,11.65
2023-01-10T16:31:06.575Z,15.15
2023-01-10T16:33:37.079Z,15.40
2023-01-10T16:36:04.743Z,16.63
2023-01-10T16:38:32.224Z,21.13
2023-01-10T16:41:21.971Z,12.98
2023-01-10T16:43:49.668Z,16.75
2023-01-10T16:46:16.715Z,15.25
2023-01-10T16:48:47.574Z,20.15
2023-01-10T16:51:18.994Z,14.02
2023-01-10T16:53:46.952Z,13.98
2023-01-10T16:56:16.583Z,13.98
2023-01-10T16:58:43.766Z,15.93
2023-01-10T17:01:17.494Z,19.73
2023-01-10T17:03:45.578Z,23.60
2023-01-10T17:06:13.878Z,18.63
2023-01-10T17:08:41.518Z,21.42
2023-01-10T17:11:17.780Z,19.02
2023-01-10T17:16:13.146Z,9.43
2023-01-10T17:18:40.285Z,14.25
2023-01-10T17:21:11.168Z,16.65
2023-01-10T17:23:38.150Z,14.60
2023-01-10T17:26:05.955Z,13.48
2023-01-10T17:28:32.985Z,17.15
2023-01-10T17:31:00.172Z,12.77
2023-01-10T17:33:27.434Z,18.33
2023-01-10T17:35:56.214Z,16.88
2023-01-10T17:38:25.706Z,13.63
2023-01-10T17:40:53.515Z,14.25
2023-01-10T17:43:21.480Z,16.23
2023-01-10T17:45:51.205Z,9.25
2023-01-10T17:48:19.768Z,11.55
2023-01-10T17:50:48.335Z,6.47
2023-01-10T17:53:17.697Z,11.23
2023-01-10T17:55:48.725Z,8.30
2023-01-10T17:58:17.528Z,6.53
2023-01-10T18:00:46.138Z,7.13
2023-01-10T18:03:13.189Z,8.05
2023-01-10T18:05:40.241Z,7.68
2023-01-10T18:08:08.128Z,8.20
2023-01-10T18:10:35.224Z,8.13
2023-01-10T18:13:03.594Z,7.15
2023-01-10T18:15:30.942Z,10.73
2023-01-10T18:17:58.100Z,8.95
2023-01-10T18:20:25.113Z,6.20
2023-01-10T18:23:11.077Z,9.52
2023-01-10T18:25:38.081Z,6.55
2023-01-10T18:28:05.200Z,8.05
2023-01-10T18:30:32.315Z,11.40
2023-01-10T18:32:59.429Z,8.32
2023-01-10T18:35:27.087Z,9.32
2023-01-10T18:37:55.489Z,13.15
2023-01-10T18:40:22.441Z,15.20
2023-01-10T18:42:53.639Z,11.90
2023-01-10T18:45:22.496Z,12.68
2023-01-10T18:47:55.577Z,18.50
2023-01-10T18:50:22.987Z,29.48
2023-01-10T18:52:50.535Z,12.77
2023-01-10T18:55:17.677Z,18.77
2023-01-10T18:57:44.629Z,21.50
2023-01-10T19:00:12.180Z,14.38
2023-01-10T19:02:39.690Z,22.55
2023-01-10T19:05:09.850Z,26.83
2023-01-10T19:07:37.169Z,31.77
2023-01-10T19:10:05.276Z,19.88
2023-01-10T19:12:32.468Z,20.27
2023-01-10T19:15:00.980Z,20.42
2023-01-10T19:17:29.465Z,18.30
2023-01-10T19:19:56.403Z,17.75
2023-01-10T19:22:23.709Z,20.05
2023-01-10T19:24:50.829Z,19.20
2023-01-10T19:27:18.648Z,15.40
2023-01-10T19:29:48.705Z,15.00
2023-01-10T19:32:16.432Z,19.08
2023-01-10T19:34:45.489Z,15.00
2023-01-10T19:37:13.639Z,17.52
2023-01-10T19:39:40.713Z,19.75
2023-01-10T19:42:07.994Z,14.75
2023-01-10T19:44:35.011Z,16.10
2023-01-10T19:47:02.068Z,7.25
2023-01-10T19:49:34.756Z,14.10
2023-01-10T19:52:02.424Z,9.90
2023-01-10T19:54:31.425Z,11.15
2023-01-10T19:56:58.562Z,14.32
2023-01-10T19:59:26.070Z,12.48
2023-01-10T20:01:53.034Z,10.43
2023-01-10T20:04:20.408Z,9.70
2023-01-10T20:06:47.775Z,8.98
2023-01-10T20:09:15.336Z,12.35
2023-01-10T20:11:43.163Z,13.60
2023-01-10T20:14:28.132Z,7.43
2023-01-10T20:16:55.137Z,11.98
2023-01-10T20:19:22.544Z,14.50
2023-01-10T20:21:50.057Z,12.63
2023-01-10T20:24:19.585Z,10.80
2023-01-10T20:26:48.677Z,8.98
2023-01-10T20:29:16.659Z,13.82
2023-01-10T20:31:46.568Z,14.05
2023-01-10T20:34:13.533Z,13.00
2023-01-10T20:36:40.577Z,9.00
2023-01-10T20:39:07.718Z,14.40
2023-01-10T20:41:35.014Z,17.38
2023-01-10T20:44:02.035Z,7.88
2023-01-10T20:46:32.092Z,13.48
2023-01-10T20:49:02.243Z,13.93
2023-01-10T20:51:32.313Z,13.35
2023-01-10T20:53:59.943Z,13.18
2023-01-10T20:56:29.472Z,14.65
2023-01-10T20:58:56.901Z,13.07
2023-01-10T21:01:34.167Z,14.38
2023-01-10T21:04:03.868Z,13.75
2023-01-10T21:06:30.806Z,18.02
2023-01-10T21:08:57.830Z,11.65
2023-01-10T21:11:24.813Z,8.43
2023-01-10T21:13:51.925Z,16.17
2023-01-10T21:16:22.363Z,8.30
2023-01-10T21:18:50.767Z,16.13
2023-01-10T21:21:19.883Z,9.00
2023-01-10T21:23:46.840Z,13.60
2023-01-10T21:26:15.316Z,13.77
2023-01-10T21:28:47.411Z,12.90
2023-01-10T21:31:16.687Z,11.15
2023-01-10T21:33:44.156Z,18.80
2023-01-10T21:36:12.859Z,17.98
2023-01-10T21:38:40.690Z,19.15
2023-01-10T21:41:36.648Z,19.55
2023-01-10T21:44:05.654Z,13.82
2023-01-10T21:46:32.815Z,21.77
2023-01-10T21:49:01.731Z,16.80
2023-01-10T21:51:28.639Z,21.27
2023-01-10T21:53:55.711Z,15.55
2023-01-10T21:56:22.656Z,13.55
2023-01-10T21:58:49.650Z,18.10
2023-01-10T22:01:16.738Z,17.17
2023-01-10T22:03:45.518Z,16.33
2023-01-10T22:06:13.241Z,19.25
2023-01-10T22:08:40.168Z,13.57
2023-01-10T22:11:08.130Z,17.52
2023-01-10T22:13:36.844Z,19.75
2023-01-10T22:16:04.152Z,27.38
2023-01-10T22:18:31.548Z,15.63
2023-01-10T22:20:59.528Z,16.08
2023-01-10T22:23:29.188Z,16.98
2023-01-10T22:26:01.402Z,12.55
2023-01-10T22:28:28.631Z,12.38
2023-01-10T22:30:56.160Z,20.50
2023-01-10T22:33:24.401Z,25.67
2023-01-10T22:35:51.343Z,13.95
2023-01-10T22:38:18.434Z,12.95
2023-01-10T22:40:45.375Z,20.23
2023-01-10T22:43:12.679Z,15.55
2023-01-10T22:45:43.375Z,12.95
2023-01-10T22:48:10.450Z,16.48
2023-01-10T22:50:37.506Z,15.57
2023-01-10T22:53:04.416Z,19.48
2023-01-10T22:55:33.882Z,28.13
2023-01-10T22:58:00.737Z,20.67
2023-01-10T23:00:29.104Z,13.63
2023-01-10T23:02:56.172Z,10.40
2023-01-10T23:05:23.080Z,18.83
2023-01-10T23:07:53.657Z,13.98
2023-01-10T23:10:29.626Z,18.75
2023-01-10T23:12:58.026Z,16.10
2023-01-10T23:15:25.488Z,14.40
2023-01-10T23:17:52.467Z,17.65
2023-01-10T23:20:19.659Z,19.40
2023-01-10T23:22:46.682Z,12.02
2023-01-10T23:25:13.583Z,12.82
2023-01-10T23:27:40.481Z,14.07
2023-01-10T23:30:09.473Z,18.98
2023-01-10T23:32:36.821Z,13.90
2023-01-10T23:35:04.507Z,12.23
2023-01-10T23:37:31.384Z,16.05
2023-01-10T23:39:58.289Z,13.95
2023-01-10T23:42:25.183Z,16.50
2023-01-10T23:44:52.153Z,16.73
2023-01-10T23:47:19.185Z,17.33
2023-01-10T23:49:46.060Z,16.65
2023-01-10T23:52:14.978Z,13.57
2023-01-10T23:54:41.984Z,16.83
2023-01-10T23:57:08.917Z,24.92
2023-01-10T23:59:35.822Z,12.45
